Gaziantep, Turkey
Current Conditions -  °F | °C
As of 11:20 PM on Friday 28 Nov 2014 (Local Time) from LTAJ Reporting Station
Clear Clear  
Wind Chill: 39°   Ceiling: Unl
Heat Index: 39°   Visibility: 4mi
Dew Point: 36°   Wind: 0mph
Humidity: 87%   Direction: NA
Pressure: 30.24"   Gusts: NA
Location:  37.07°N, 37.39°E
Report Text: LTAJ 282020Z 00000KT 6000 NSC 04/02 Q1024 NOSIG
Loading
Personal Weather Stations






























Interactive Weather Map New forecast layout! Learn more

10-Day Weather Forecast

Advertisements
Track Severe Weather on mobile